Terminal Aerodrome Forecast
Issued by NWS

Home | Current Version | Previous Version | Graphics & Text | Print | Product List | Glossary On
Versions: 1 2 3 4 5 6 7 8 9 10 11 12 13 14 15 16 17 18 19 20 21 22 23 24
000
FTUS45 KGGW 221700
TAFOLF
TAF
KOLF 221728Z 2218/2318 26010KT P6SM BKN150
     FM230200 27007KT P6SM VCSH BKN080 WS010/30030KT
     FM230600 26007KT P6SM SCT120 WS010/31030KT=

USA.gov is the U.S. government's official web portal to all federal, state and local government web resources and services.